createdAt,value
2018-11-22T00:02:25.753Z,100539.94
2018-11-22T00:04:52.996Z,100537.92
2018-11-22T00:07:20.524Z,100540.20
2018-11-22T00:09:47.883Z,100539.11
2018-11-22T00:12:15.034Z,100534.65
2018-11-22T00:14:42.207Z,100542.39
2018-11-22T00:17:09.684Z,100541.46
2018-11-22T00:19:37.160Z,100541.94
2018-11-22T00:22:04.343Z,100539.81
2018-11-22T00:24:32.017Z,100541.74
2018-11-22T00:26:59.245Z,100549.91
2018-11-22T00:29:26.783Z,100552.89
2018-11-22T00:31:54.491Z,100549.46
2018-11-22T00:34:21.650Z,100548.48
2018-11-22T00:36:48.855Z,100550.77
2018-11-22T00:39:16.226Z,100545.59
2018-11-22T00:41:43.379Z,100551.95
2018-11-22T00:44:10.544Z,100546.75
2018-11-22T00:46:37.799Z,100551.08
2018-11-22T00:49:04.999Z,100546.54
2018-11-22T00:51:32.410Z,100550.97
2018-11-22T00:54:00.029Z,100548.75
2018-11-22T00:56:27.642Z,100555.72
2018-11-22T00:58:55.129Z,100555.82
2018-11-22T01:01:23.380Z,100551.09
2018-11-22T01:03:51.344Z,100552.88
2018-11-22T01:06:18.772Z,100551.94
2018-11-22T01:08:45.966Z,100556.41
2018-11-22T01:11:13.196Z,100554.78
2018-11-22T01:13:40.389Z,100547.77
2018-11-22T01:16:08.110Z,100555.73
2018-11-22T01:18:35.260Z,100548.77
2018-11-22T01:21:02.390Z,100547.97
2018-11-22T01:23:29.957Z,100550.08
2018-11-22T01:25:57.358Z,100550.20
2018-11-22T01:28:24.858Z,100549.09
2018-11-22T01:30:52.500Z,100544.81
2018-11-22T01:33:19.912Z,100546.03
2018-11-22T01:35:47.140Z,100544.63
2018-11-22T01:38:15.031Z,100546.50
2018-11-22T01:40:42.298Z,100541.05
2018-11-22T01:43:09.738Z,100540.39
2018-11-22T01:45:37.172Z,100538.36
2018-11-22T01:48:04.599Z,100540.83
2018-11-22T01:50:31.848Z,100539.77
2018-11-22T01:52:59.185Z,100539.28
2018-11-22T01:55:26.352Z,100545.70
2018-11-22T01:57:53.527Z,100543.62
2018-11-22T02:00:23.511Z,100544.23
2018-11-22T02:02:50.707Z,100541.02
2018-11-22T02:05:19.055Z,100541.38
2018-11-22T02:07:46.296Z,100539.89
2018-11-22T02:10:14.539Z,100537.25
2018-11-22T02:12:41.680Z,100540.10
2018-11-22T02:15:20.779Z,100536.87
2018-11-22T02:17:48.250Z,100536.02
2018-11-22T02:20:19.389Z,100536.02
2018-11-22T02:22:46.780Z,100536.80
2018-11-22T02:25:15.541Z,100537.09
2018-11-22T02:27:43.055Z,100535.16
2018-11-22T02:30:13.327Z,100531.92
2018-11-22T02:32:40.561Z,100537.54
2018-11-22T02:35:08.528Z,100540.62
2018-11-22T02:37:35.901Z,100541.55
2018-11-22T02:40:03.352Z,100537.28
2018-11-22T02:42:30.773Z,100543.17
2018-11-22T02:44:57.999Z,100541.31
2018-11-22T02:47:25.465Z,100544.55
2018-11-22T02:49:53.302Z,100544.38
2018-11-22T02:52:21.165Z,100544.86
2018-11-22T02:54:48.369Z,100545.66
2018-11-22T02:57:15.926Z,100543.75
2018-11-22T02:59:43.337Z,100543.59
2018-11-22T03:02:10.844Z,100541.99
2018-11-22T03:04:38.130Z,100542.19
2018-11-22T03:07:05.403Z,100544.27
2018-11-22T03:09:32.583Z,100538.42
2018-11-22T03:12:00.224Z,100541.28
2018-11-22T03:14:27.403Z,100539.80
2018-11-22T03:16:54.604Z,100540.08
2018-11-22T03:19:21.955Z,100539.94
2018-11-22T03:21:49.359Z,100541.91
2018-11-22T03:24:16.576Z,100540.06
2018-11-22T03:26:44.217Z,100537.23
2018-11-22T03:29:11.350Z,100540.05
2018-11-22T03:31:38.903Z,100541.05
2018-11-22T03:34:06.331Z,100530.63
2018-11-22T03:36:33.535Z,100534.66
2018-11-22T03:39:00.777Z,100537.63
2018-11-22T03:41:28.027Z,100539.39
2018-11-22T03:43:55.539Z,100537.53
2018-11-22T03:46:22.771Z,100538.37
2018-11-22T12:17:23.522Z,100600.00
2018-11-22T12:19:51.813Z,100602.00
2018-11-22T12:22:19.782Z,100599.00
2018-11-22T12:24:47.369Z,100602.00
2018-11-22T12:27:14.937Z,100597.00
2018-11-22T12:29:42.786Z,100601.00
2018-11-22T12:32:11.925Z,100598.00
2018-11-22T12:34:45.594Z,100596.00
2018-11-22T12:37:18.980Z,100594.00
2018-11-22T12:39:46.963Z,100593.00
2018-11-22T12:42:14.533Z,100591.00
2018-11-22T12:44:42.340Z,100594.00
2018-11-22T12:47:09.891Z,100589.00
2018-11-22T12:49:37.380Z,100589.00
2018-11-22T12:52:05.602Z,100584.00
2018-11-22T12:54:35.189Z,100589.00
2018-11-22T12:57:02.800Z,100585.00
2018-11-22T12:59:30.912Z,100584.00
2018-11-22T13:01:58.482Z,100580.00
2018-11-22T13:04:25.993Z,100583.00
2018-11-22T13:06:54.085Z,100580.00
2018-11-22T13:09:21.665Z,100581.00
2018-11-22T13:11:49.250Z,100584.00
2018-11-22T13:14:17.259Z,100580.00
2018-11-22T13:16:44.769Z,100583.00
2018-11-22T13:19:12.393Z,100583.00
2018-11-22T13:21:40.175Z,100580.00
2018-11-22T13:24:07.778Z,100579.00
2018-11-22T13:26:35.609Z,100575.00
2018-11-22T13:29:03.284Z,100573.00
2018-11-22T13:31:30.899Z,100580.00
2018-11-22T13:33:58.723Z,100576.00
2018-11-22T13:36:26.283Z,100578.00
2018-11-22T13:38:54.303Z,100580.00
2018-11-22T13:41:22.226Z,100583.00
2018-11-22T13:43:50.451Z,100581.00
2018-11-22T13:46:18.002Z,100584.00
2018-11-22T13:48:45.502Z,100586.00
2018-11-22T13:51:13.046Z,100583.00
2018-11-22T13:53:40.870Z,100587.00
2018-11-22T13:56:08.407Z,100589.00
2018-11-22T13:58:35.966Z,100590.00
2018-11-22T14:01:03.597Z,100588.00
2018-11-22T14:03:31.198Z,100595.00
2018-11-22T14:05:58.888Z,100598.00
2018-11-22T14:08:26.809Z,100595.00
2018-11-22T14:10:58.455Z,100596.00
2018-11-22T14:13:21.999Z,100597.00
2018-11-22T14:15:49.744Z,100594.00
2018-11-22T14:18:17.320Z,100596.00
2018-11-22T14:20:44.899Z,100598.00
2018-11-22T14:23:12.679Z,100594.00
2018-11-22T14:25:40.238Z,100594.00
2018-11-22T14:28:08.130Z,100599.00
2018-11-22T14:30:36.067Z,100603.00
2018-11-22T14:33:03.845Z,100602.00
2018-11-22T14:35:32.068Z,100603.00
2018-11-22T14:37:59.660Z,100602.00
2018-11-22T14:40:28.711Z,100602.00
2018-11-22T14:42:57.113Z,100606.00
2018-11-22T14:45:25.224Z,100604.00
2018-11-22T14:47:53.912Z,100604.00
2018-11-22T14:50:44.255Z,100605.00
2018-11-22T14:53:16.382Z,100609.00
2018-11-22T14:55:44.294Z,100605.00
2018-11-22T14:58:11.953Z,100603.00
2018-11-22T15:00:39.717Z,100600.00
2018-11-22T15:03:07.539Z,100603.00
2018-11-22T15:05:35.171Z,100602.00
2018-11-22T15:08:04.736Z,100602.00
2018-11-22T15:10:32.586Z,100606.00
2018-11-22T15:13:00.182Z,100604.00
2018-11-22T15:15:28.854Z,100602.00
2018-11-22T15:17:56.447Z,100606.00
2018-11-22T15:20:24.229Z,100605.00
2018-11-22T15:22:52.657Z,100603.00
2018-11-22T15:25:21.513Z,100603.00
2018-11-22T15:27:49.225Z,100606.00
2018-11-22T15:30:20.298Z,100600.00
2018-11-22T15:32:48.028Z,100602.00
2018-11-22T15:35:16.858Z,100604.00
2018-11-22T15:37:44.767Z,100603.00
2018-11-22T15:40:17.187Z,100604.00
2018-11-22T15:42:45.665Z,100604.00
2018-11-22T15:45:14.753Z,100603.00
2018-11-22T15:47:42.897Z,100607.00
2018-11-22T15:50:14.432Z,100608.00
2018-11-22T15:52:42.633Z,100613.00
2018-11-22T15:55:10.805Z,100605.00
2018-11-22T15:57:39.783Z,100607.00
2018-11-22T16:00:11.933Z,100612.00
2018-11-22T16:02:39.515Z,100612.00
2018-11-22T16:05:08.091Z,100609.00
2018-11-22T16:07:44.830Z,100612.00
2018-11-22T16:10:26.306Z,100608.00
2018-11-22T16:12:51.899Z,100607.00
2018-11-22T16:15:24.107Z,100605.00
2018-11-22T16:17:58.118Z,100606.00
2018-11-22T16:20:32.511Z,100621.00
2018-11-22T16:23:08.135Z,100619.00
2018-11-22T16:25:37.055Z,100620.00
2018-11-22T16:28:43.355Z,100617.00
2018-11-22T16:31:49.382Z,100618.00
2018-11-22T16:34:17.199Z,100617.00
2018-11-22T16:36:44.864Z,100619.00
2018-11-22T16:39:12.425Z,100622.00
2018-11-22T16:41:40.070Z,100619.00
2018-11-22T16:44:07.738Z,100623.00
2018-11-22T16:46:36.354Z,100617.00
2018-11-22T16:49:03.885Z,100622.00
2018-11-22T16:51:31.470Z,100624.00
2018-11-22T16:53:59.099Z,100621.00
2018-11-22T16:56:27.067Z,100628.00
2018-11-22T16:58:54.653Z,100625.00
2018-11-22T17:01:27.662Z,100621.00
2018-11-22T17:03:50.049Z,100616.00
2018-11-22T17:06:17.743Z,100614.00
2018-11-22T17:08:45.302Z,100620.00
2018-11-22T17:11:13.175Z,100616.00
2018-11-22T17:13:40.769Z,100619.00
2018-11-22T17:16:08.341Z,100622.00
2018-11-22T17:18:35.967Z,100629.00
2018-11-22T17:21:04.126Z,100632.00
2018-11-22T17:23:31.735Z,100629.00
2018-11-22T17:25:59.329Z,100636.00
2018-11-22T17:28:27.115Z,100630.00
2018-11-22T17:30:54.687Z,100630.00
2018-11-22T17:33:22.853Z,100632.00
2018-11-22T17:35:50.757Z,100628.00
2018-11-22T17:38:18.347Z,100628.00
2018-11-22T17:40:47.268Z,100630.00
2018-11-22T17:43:15.377Z,100625.00
2018-11-22T17:45:44.338Z,100629.00
2018-11-22T17:48:12.693Z,100627.00
2018-11-22T17:50:42.064Z,100628.00
2018-11-22T17:53:10.759Z,100622.00
2018-11-22T17:55:38.372Z,100625.00
2018-11-22T17:58:06.050Z,100623.00
2018-11-22T18:00:35.907Z,100622.00
2018-11-22T18:03:04.312Z,100628.00
2018-11-22T18:05:32.885Z,100617.00
2018-11-22T18:08:01.402Z,100618.00
2018-11-22T18:10:30.723Z,100621.00
2018-11-22T18:12:59.079Z,100622.00
2018-11-22T18:15:27.340Z,100624.00
2018-11-22T18:17:55.513Z,100626.00
2018-11-22T18:20:24.513Z,100623.00
2018-11-22T18:22:53.175Z,100623.00
2018-11-22T18:25:21.979Z,100621.00
2018-11-22T18:27:49.655Z,100621.00
2018-11-22T18:30:18.630Z,100621.00
2018-11-22T18:32:47.889Z,100624.00
2018-11-22T18:35:16.067Z,100622.00
2018-11-22T18:37:43.886Z,100622.00
2018-11-22T18:40:14.926Z,100621.00
2018-11-22T18:42:43.260Z,100620.00
2018-11-22T18:45:13.137Z,100618.00
2018-11-22T18:47:41.237Z,100619.00
2018-11-22T18:50:15.586Z,100618.00
2018-11-22T18:52:41.855Z,100614.00
2018-11-22T18:55:09.835Z,100618.00
2018-11-22T18:57:37.876Z,100620.00
2018-11-22T19:00:14.183Z,100616.00
2018-11-22T19:02:42.398Z,100609.00
2018-11-22T19:05:11.269Z,100611.00
2018-11-22T19:07:39.330Z,100614.00
2018-11-22T19:10:13.393Z,100616.00
2018-11-22T19:12:41.209Z,100619.00
2018-11-22T19:15:11.026Z,100624.00
2018-11-22T19:17:38.774Z,100630.00
2018-11-22T19:20:12.954Z,100636.00
2018-11-22T19:22:41.006Z,100631.00
2018-11-22T19:25:08.917Z,100629.00
2018-11-22T19:27:37.089Z,100636.00
2018-11-22T19:30:08.885Z,100629.00
2018-11-22T19:32:37.023Z,100629.00
2018-11-22T19:35:06.727Z,100631.00
2018-11-22T19:37:34.483Z,100626.00
2018-11-22T19:40:02.391Z,100631.00
2018-11-22T19:42:30.010Z,100633.00
2018-11-22T19:44:57.584Z,100632.00
2018-11-22T19:47:25.338Z,100631.00
2018-11-22T19:49:53.166Z,100631.00
2018-11-22T19:52:20.940Z,100635.00
2018-11-22T19:54:48.616Z,100636.00
2018-11-22T19:57:16.186Z,100636.00
2018-11-22T19:59:44.117Z,100639.00
2018-11-22T20:02:11.668Z,100636.00
2018-11-22T20:04:39.666Z,100637.00
2018-11-22T20:07:07.563Z,100637.00
2018-11-22T20:09:35.213Z,100644.00
2018-11-22T20:12:02.831Z,100647.00
2018-11-22T20:14:31.265Z,100645.00
2018-11-22T20:16:59.190Z,100646.00
2018-11-22T20:19:26.863Z,100646.00
2018-11-22T20:21:55.016Z,100650.00
2018-11-22T20:24:22.639Z,100650.00
2018-11-22T20:26:50.236Z,100648.00
2018-11-22T20:29:18.273Z,100648.00
2018-11-22T20:31:46.515Z,100645.00
2018-11-22T20:34:14.390Z,100646.00
2018-11-22T20:36:42.224Z,100645.00
2018-11-22T20:39:11.166Z,100649.00
2018-11-22T20:41:39.140Z,100648.00
2018-11-22T20:44:07.661Z,100647.00
2018-11-22T20:46:35.381Z,100643.00
2018-11-22T20:49:02.925Z,100643.00
2018-11-22T20:51:30.534Z,100642.00
2018-11-22T20:53:58.114Z,100644.00
2018-11-22T20:56:25.854Z,100646.00
2018-11-22T20:58:53.683Z,100649.00
2018-11-22T21:01:21.258Z,100649.00
2018-11-22T21:03:49.112Z,100648.00
2018-11-22T21:06:16.650Z,100652.00
2018-11-22T21:08:48.586Z,100647.00
2018-11-22T21:11:12.117Z,100645.00
2018-11-22T21:13:39.751Z,100653.00
2018-11-22T21:16:07.303Z,100651.00
2018-11-22T21:18:35.223Z,100649.00
2018-11-22T21:21:02.814Z,100645.00
2018-11-22T21:23:30.374Z,100647.00
2018-11-22T21:25:58.431Z,100649.00
2018-11-22T21:28:26.050Z,100651.00
2018-11-22T21:30:53.606Z,100653.00
2018-11-22T21:33:21.446Z,100648.00
2018-11-22T21:35:49.023Z,100651.00
2018-11-22T21:38:16.680Z,100654.00
2018-11-22T21:40:44.331Z,100655.00
2018-11-22T21:43:11.910Z,100653.00
2018-11-22T21:45:39.498Z,100658.00
2018-11-22T21:48:07.162Z,100656.00
2018-11-22T21:50:34.812Z,100660.00
2018-11-22T21:53:02.401Z,100661.00
2018-11-22T21:55:30.766Z,100662.00
2018-11-22T21:57:59.477Z,100663.00
2018-11-22T22:00:35.917Z,100661.00
2018-11-22T22:03:05.413Z,100662.00
2018-11-22T22:06:10.958Z,100659.00
2018-11-22T22:08:39.659Z,100665.00
2018-11-22T22:11:21.058Z,100662.00
2018-11-22T22:14:10.376Z,100662.00
2018-11-22T22:16:38.317Z,100658.00
2018-11-22T22:19:07.862Z,100656.00
2018-11-22T22:21:35.742Z,100656.00
2018-11-22T22:24:04.200Z,100658.00
2018-11-22T22:26:31.865Z,100660.00
2018-11-22T22:28:59.750Z,100659.00
2018-11-22T22:31:27.341Z,100658.00
2018-11-22T22:33:54.871Z,100660.00
2018-11-22T22:36:22.538Z,100665.00
2018-11-22T22:38:50.091Z,100666.00
2018-11-22T22:41:17.616Z,100659.00
2018-11-22T22:43:45.243Z,100662.00
2018-11-22T22:46:12.793Z,100661.00
2018-11-22T22:48:40.673Z,100660.00
2018-11-22T22:51:08.739Z,100657.00
2018-11-22T22:53:36.320Z,100657.00
2018-11-22T22:56:04.205Z,100658.00
2018-11-22T22:58:31.953Z,100663.00
2018-11-22T23:01:01.233Z,100665.00
2018-11-22T23:03:29.555Z,100662.00
2018-11-22T23:05:57.644Z,100662.00
2018-11-22T23:08:25.234Z,100664.00
2018-11-22T23:10:52.822Z,100657.00
2018-11-22T23:13:20.629Z,100658.00
2018-11-22T23:15:48.174Z,100661.00
2018-11-22T23:18:15.754Z,100656.00
2018-11-22T23:20:43.585Z,100654.00
2018-11-22T23:23:11.219Z,100655.00
2018-11-22T23:25:38.795Z,100645.00
2018-11-22T23:28:06.537Z,100644.00
2018-11-22T23:30:34.880Z,100644.00
2018-11-22T23:33:03.842Z,100642.00
2018-11-22T23:35:33.704Z,100644.00
2018-11-22T23:38:01.244Z,100647.00
2018-11-22T23:40:29.833Z,100649.00
2018-11-22T23:42:57.965Z,100646.00
2018-11-22T23:45:26.969Z,100650.00
2018-11-22T23:47:54.558Z,100651.00
2018-11-22T23:50:26.829Z,100651.00
2018-11-22T23:52:55.578Z,100646.00
2018-11-22T23:55:23.278Z,100650.00
2018-11-22T23:57:51.129Z,100653.00
